createdAt,value
2022-09-23T00:00:29.975Z,49.74
2022-09-23T00:05:33.143Z,49.82
2022-09-23T00:15:56.795Z,50.26
2022-09-23T00:21:02.126Z,50.33
2022-09-23T00:26:06.792Z,50.04
2022-09-23T00:31:18.146Z,49.75
2022-09-23T00:36:20.049Z,50.20
2022-09-23T00:41:22.079Z,49.94
2022-09-23T00:46:31.262Z,49.96
2022-09-23T00:51:38.733Z,50.26
2022-09-23T00:56:40.792Z,50.31
2022-09-23T01:01:44.397Z,50.57
2022-09-23T01:06:46.344Z,50.98
2022-09-23T01:11:48.462Z,50.57
2022-09-23T01:17:07.481Z,51.20
2022-09-23T01:22:37.026Z,50.92
2022-09-23T01:28:04.305Z,51.40
2022-09-23T01:33:14.852Z,52.03
2022-09-23T01:38:22.573Z,51.70
2022-09-23T01:43:33.982Z,51.48
2022-09-23T01:48:40.057Z,51.39
2022-09-23T01:53:49.600Z,51.13
2022-09-23T01:59:01.622Z,51.38
2022-09-23T02:04:10.119Z,51.24
2022-09-23T02:09:15.921Z,51.05
2022-09-23T02:14:29.423Z,50.92
2022-09-23T02:19:48.076Z,51.26
2022-09-23T02:24:50.205Z,51.85
2022-09-23T02:30:10.457Z,51.63
2022-09-23T02:35:19.829Z,51.47
2022-09-23T02:40:25.228Z,51.35
2022-09-23T02:45:27.676Z,51.70
2022-09-23T02:50:31.043Z,51.81
2022-09-23T02:55:33.340Z,51.87
2022-09-23T03:00:53.997Z,51.90
2022-09-23T03:05:58.934Z,51.89
2022-09-23T03:11:07.201Z,51.89
2022-09-23T03:16:22.528Z,51.38
2022-09-23T03:21:46.415Z,52.06
2022-09-23T03:26:50.021Z,52.21
2022-09-23T03:31:53.255Z,52.13
2022-09-23T03:37:03.197Z,51.67
2022-09-23T03:42:17.296Z,52.42
2022-09-23T03:47:19.083Z,51.93
2022-09-23T03:52:23.217Z,51.85
2022-09-23T03:57:25.773Z,52.34
2022-09-23T04:02:27.630Z,52.70
2022-09-23T04:07:29.554Z,52.33
2022-09-23T04:12:31.398Z,52.86
2022-09-23T04:17:34.303Z,53.41
2022-09-23T04:22:38.641Z,52.67
2022-09-23T04:27:40.483Z,52.65
2022-09-23T04:32:42.274Z,52.49
2022-09-23T04:37:44.335Z,52.91
2022-09-23T04:42:46.111Z,52.87
2022-09-23T04:47:47.916Z,53.07
2022-09-23T04:52:49.706Z,53.26
2022-09-23T04:57:51.668Z,53.16
2022-09-23T05:02:53.487Z,53.26
2022-09-23T05:07:56.249Z,52.74
2022-09-23T05:12:59.200Z,53.06
2022-09-23T05:18:02.583Z,53.09
2022-09-23T05:23:04.788Z,53.67
2022-09-23T05:28:06.963Z,53.40
2022-09-23T05:33:08.761Z,53.62
2022-09-23T05:38:10.549Z,53.20
2022-09-23T05:43:12.325Z,53.44
2022-09-23T05:48:14.099Z,53.68
2022-09-23T05:53:15.979Z,53.46
2022-09-23T05:58:18.013Z,53.20
2022-09-23T06:03:21.147Z,53.04
2022-09-23T06:08:23.965Z,53.40
2022-09-23T06:13:27.555Z,53.04
2022-09-23T06:18:29.333Z,53.03
2022-09-23T06:23:31.367Z,52.76
2022-09-23T06:28:38.062Z,52.42
2022-09-23T06:33:40.554Z,52.38
2022-09-23T06:38:48.625Z,52.14
2022-09-23T06:43:50.468Z,52.13
2022-09-23T06:48:52.422Z,51.72
2022-09-23T06:53:54.348Z,51.59
2022-09-23T06:58:56.182Z,51.17
2022-09-23T07:03:57.985Z,50.91
2022-09-23T07:09:01.131Z,50.89
2022-09-23T07:14:03.358Z,50.40
2022-09-23T07:19:05.361Z,49.86
2022-09-23T07:24:07.671Z,49.64
2022-09-23T07:29:13.793Z,49.22
2022-09-23T07:34:15.634Z,48.89
2022-09-23T07:39:17.494Z,48.40
2022-09-23T07:44:20.308Z,48.33
2022-09-23T07:49:22.258Z,47.78
2022-09-23T07:54:25.714Z,47.69
2022-09-23T07:59:27.620Z,47.52
2022-09-23T08:04:31.315Z,47.27
2022-09-23T08:09:41.885Z,46.95
2022-09-23T08:14:44.572Z,46.59
2022-09-23T08:19:46.461Z,46.14
2022-09-23T08:24:48.350Z,46.01
2022-09-23T08:29:50.158Z,45.59
2022-09-23T08:34:52.285Z,45.15
2022-09-23T08:39:54.083Z,44.51
2022-09-23T08:44:59.106Z,43.48
2022-09-23T08:50:08.807Z,43.15
2022-09-23T08:55:15.092Z,42.84
2022-09-23T09:00:22.874Z,42.74
2022-09-23T09:05:26.954Z,42.54
2022-09-23T09:10:37.851Z,42.60
2022-09-23T09:15:55.949Z,43.31
2022-09-23T09:21:12.655Z,43.78
2022-09-23T09:26:31.961Z,44.11
2022-09-23T09:31:48.626Z,44.10
2022-09-23T09:37:07.472Z,44.26
2022-09-23T09:42:18.614Z,44.27
2022-09-23T09:47:46.830Z,44.83
2022-09-23T09:52:49.175Z,44.50
2022-09-23T09:57:54.059Z,43.67
2022-09-23T10:02:59.430Z,42.91
2022-09-23T10:08:24.343Z,42.35
2022-09-23T10:13:27.506Z,40.46
2022-09-23T10:18:36.120Z,39.88
2022-09-23T10:23:46.633Z,39.48
2022-09-23T10:28:52.986Z,40.65
2022-09-23T10:34:27.321Z,39.76
2022-09-23T10:39:48.195Z,39.53
2022-09-23T10:45:11.322Z,40.33
2022-09-23T10:50:38.468Z,39.74
2022-09-23T10:55:58.109Z,39.31
2022-09-23T11:01:09.608Z,39.31
2022-09-23T11:06:14.149Z,38.87
2022-09-23T11:11:39.466Z,38.20
2022-09-23T11:16:51.216Z,37.57
2022-09-23T11:22:07.144Z,37.27
2022-09-23T11:27:35.375Z,37.29
2022-09-23T11:33:19.209Z,37.67
2022-09-23T11:38:42.350Z,37.73
2022-09-23T11:43:47.416Z,37.50
2022-09-23T11:48:59.206Z,37.44
2022-09-23T11:54:07.367Z,37.24
2022-09-23T11:59:40.591Z,37.30
2022-09-23T12:04:57.143Z,37.47
2022-09-23T12:10:03.591Z,37.26
2022-09-23T12:15:11.313Z,37.21
2022-09-23T12:20:42.367Z,37.32
2022-09-23T12:25:52.568Z,37.36
2022-09-23T12:30:58.854Z,37.23
2022-09-23T12:36:12.314Z,37.16
2022-09-23T12:41:24.037Z,37.12
2022-09-23T12:46:27.679Z,36.99
2022-09-23T12:51:34.757Z,36.70
2022-09-23T12:56:36.502Z,36.61
2022-09-23T13:01:39.033Z,36.01
2022-09-23T13:06:58.822Z,35.89
2022-09-23T13:12:03.701Z,35.77
2022-09-23T13:17:05.731Z,35.56
2022-09-23T13:22:09.575Z,34.95
2022-09-23T13:27:33.376Z,34.66
2022-09-23T13:32:41.238Z,34.60
2022-09-23T13:37:47.947Z,34.69
2022-09-23T13:42:58.045Z,34.67
2022-09-23T13:48:11.042Z,34.82
2022-09-23T13:53:20.568Z,34.76
2022-09-23T13:58:24.446Z,34.86
2022-09-23T14:03:37.203Z,34.70
2022-09-23T14:08:43.040Z,34.94
2022-09-23T14:13:47.216Z,34.50
2022-09-23T14:18:51.916Z,34.88
2022-09-23T14:23:53.809Z,34.97
2022-09-23T14:28:57.026Z,35.11
2022-09-23T14:33:58.952Z,35.07
2022-09-23T14:39:12.374Z,35.11
2022-09-23T14:44:25.813Z,34.95
2022-09-23T14:49:27.903Z,35.26
2022-09-23T14:54:36.053Z,35.22
2022-09-23T14:59:37.861Z,35.38
2022-09-23T15:04:39.719Z,35.27
2022-09-23T15:09:42.639Z,35.35
2022-09-23T15:14:51.454Z,35.22
2022-09-23T15:20:00.757Z,35.18
2022-09-23T15:25:16.935Z,35.38
2022-09-23T15:30:19.843Z,35.67
2022-09-23T15:35:26.738Z,35.83
2022-09-23T15:40:33.925Z,35.94
2022-09-23T15:45:40.474Z,36.24
2022-09-23T15:50:43.016Z,36.36
2022-09-23T15:55:45.508Z,36.83
2022-09-23T16:00:56.065Z,37.13
2022-09-23T16:06:01.268Z,37.40
2022-09-23T16:11:03.303Z,37.67
2022-09-23T16:16:06.123Z,37.85
2022-09-23T16:21:12.572Z,37.85
2022-09-23T16:26:21.629Z,37.90
2022-09-23T16:31:25.636Z,37.99
2022-09-23T16:36:29.008Z,38.29
2022-09-23T16:41:34.479Z,38.39
2022-09-23T16:46:36.902Z,38.82
2022-09-23T16:51:38.938Z,38.85
2022-09-23T16:56:46.494Z,38.94
2022-09-23T17:02:07.222Z,39.02
2022-09-23T17:07:09.571Z,39.21
2022-09-23T17:12:24.423Z,39.47
2022-09-23T17:17:28.488Z,39.90
2022-09-23T17:22:30.547Z,40.09
2022-09-23T17:27:32.379Z,40.45
2022-09-23T17:32:34.174Z,40.49
2022-09-23T17:37:39.241Z,40.78
2022-09-23T17:42:41.556Z,40.85
2022-09-23T17:47:43.335Z,41.02
2022-09-23T17:52:46.219Z,40.84
2022-09-23T17:57:51.212Z,40.64
2022-09-23T18:02:53.237Z,40.76
2022-09-23T18:07:55.707Z,40.75
2022-09-23T18:12:57.855Z,40.65
2022-09-23T18:17:59.753Z,40.81
2022-09-23T18:23:01.654Z,40.78
2022-09-23T18:28:03.644Z,40.85
2022-09-23T18:33:05.810Z,40.97
2022-09-23T18:38:07.840Z,41.03
2022-09-23T18:43:09.728Z,40.99
2022-09-23T18:48:30.265Z,41.16
2022-09-23T18:53:32.479Z,41.14
2022-09-23T18:58:34.397Z,41.63
2022-09-23T19:03:37.262Z,41.90
2022-09-23T19:08:40.176Z,41.70
2022-09-23T19:13:42.577Z,41.83
2022-09-23T19:18:46.744Z,41.63
2022-09-23T19:23:51.751Z,41.99
2022-09-23T19:28:55.711Z,41.94
2022-09-23T19:34:00.646Z,42.16
2022-09-23T19:39:05.829Z,42.35
2022-09-23T19:44:08.084Z,42.21
2022-09-23T19:49:11.478Z,42.37
2022-09-23T19:54:26.235Z,42.58
2022-09-23T19:59:28.290Z,42.53
2022-09-23T20:04:30.206Z,42.88
2022-09-23T20:09:33.900Z,43.11
2022-09-23T20:14:35.749Z,42.86
2022-09-23T20:19:37.544Z,42.69
2022-09-23T20:24:39.393Z,43.05
2022-09-23T20:29:41.304Z,43.03
2022-09-23T20:34:49.738Z,43.56
2022-09-23T20:39:52.653Z,43.72
2022-09-23T20:44:54.952Z,43.97
2022-09-23T20:49:56.735Z,44.54
2022-09-23T20:54:58.722Z,44.69
2022-09-23T21:00:00.674Z,45.07
2022-09-23T21:05:02.563Z,45.21
2022-09-23T21:10:06.929Z,45.26
2022-09-23T21:15:09.035Z,45.18
2022-09-23T21:20:11.589Z,45.19
2022-09-23T21:25:27.527Z,45.08
2022-09-23T21:30:30.147Z,45.52
2022-09-23T21:35:31.937Z,45.24
2022-09-23T21:40:52.259Z,45.59
2022-09-23T21:45:59.683Z,45.19
2022-09-23T21:51:04.466Z,45.16
2022-09-23T21:56:09.814Z,45.37
2022-09-23T22:01:12.760Z,45.52
2022-09-23T22:06:20.340Z,45.91
2022-09-23T22:11:42.499Z,45.74
2022-09-23T22:16:44.534Z,45.71
2022-09-23T22:21:46.753Z,45.80
2022-09-23T22:26:48.536Z,46.06
2022-09-23T22:32:08.874Z,46.00
2022-09-23T22:37:10.652Z,46.00
2022-09-23T22:42:13.207Z,46.53
2022-09-23T22:47:15.342Z,46.30
2022-09-23T22:52:21.213Z,46.35
2022-09-23T22:57:23.120Z,46.06
2022-09-23T23:02:25.027Z,46.27
2022-09-23T23:07:26.853Z,46.36
2022-09-23T23:12:28.711Z,46.41
2022-09-23T23:17:30.540Z,46.63
2022-09-23T23:22:32.328Z,46.81
2022-09-23T23:27:34.695Z,46.80
2022-09-23T23:32:36.826Z,47.14
2022-09-23T23:37:38.832Z,46.66
2022-09-23T23:42:40.743Z,46.83
2022-09-23T23:47:42.789Z,46.55
2022-09-23T23:52:45.540Z,46.96
2022-09-23T23:57:47.371Z,46.64
